createdAt,value
2023-02-17T00:01:27.728Z,13.40
2023-02-17T00:03:56.471Z,12.20
2023-02-17T00:06:25.664Z,12.83
2023-02-17T00:08:55.727Z,13.20
2023-02-17T00:11:24.173Z,12.63
2023-02-17T00:13:55.184Z,14.47
2023-02-17T00:16:25.233Z,13.23
2023-02-17T00:18:54.753Z,13.13
2023-02-17T00:21:24.188Z,13.30
2023-02-17T00:23:53.019Z,13.47
2023-02-17T00:26:22.968Z,14.33
2023-02-17T00:28:51.545Z,13.00
2023-02-17T00:31:21.558Z,11.90
2023-02-17T00:33:50.246Z,12.37
2023-02-17T00:36:19.145Z,13.10
2023-02-17T00:38:49.055Z,11.20
2023-02-17T00:41:17.680Z,11.67
2023-02-17T00:43:47.430Z,12.50
2023-02-17T00:46:15.846Z,11.97
2023-02-17T00:48:44.622Z,12.90
2023-02-17T00:51:13.109Z,12.97
2023-02-17T00:53:41.605Z,13.57
2023-02-17T00:56:10.295Z,13.37
2023-02-17T00:58:38.730Z,12.97
2023-02-17T01:01:08.669Z,13.93
2023-02-17T01:03:37.319Z,14.13
2023-02-17T01:06:07.550Z,14.43
2023-02-17T01:08:36.105Z,15.13
2023-02-17T01:11:04.597Z,14.80
2023-02-17T01:13:33.156Z,14.73
2023-02-17T01:16:01.647Z,13.90
2023-02-17T01:18:31.531Z,15.43
2023-02-17T01:21:00.029Z,16.30
2023-02-17T01:23:28.389Z,15.80
2023-02-17T01:25:56.873Z,15.27
2023-02-17T01:28:25.365Z,14.63
2023-02-17T01:30:53.898Z,13.80
2023-02-17T01:33:22.461Z,15.33
2023-02-17T01:35:52.293Z,13.93
2023-02-17T01:38:20.715Z,13.93
2023-02-17T01:40:49.628Z,13.00
2023-02-17T01:43:18.356Z,13.00
2023-02-17T01:45:48.686Z,12.83
2023-02-17T01:48:20.248Z,13.80
2023-02-17T01:50:49.454Z,13.83
2023-02-17T01:53:20.661Z,14.13
2023-02-17T01:55:49.054Z,14.43
2023-02-17T01:58:17.999Z,13.60
2023-02-17T02:00:46.444Z,15.03
2023-02-17T02:03:15.148Z,14.87
2023-02-17T02:05:43.601Z,15.33
2023-02-17T02:08:12.248Z,15.50
2023-02-17T02:10:42.099Z,16.00
2023-02-17T02:13:10.808Z,15.40
2023-02-17T02:15:41.252Z,15.97
2023-02-17T02:18:15.962Z,15.50
2023-02-17T02:21:03.185Z,15.00
2023-02-17T02:23:51.327Z,15.40
2023-02-17T02:26:32.861Z,14.80
2023-02-17T02:29:13.882Z,14.57
2023-02-17T02:31:44.314Z,14.23
2023-02-17T02:34:14.750Z,13.37
2023-02-17T02:36:44.854Z,14.50
2023-02-17T02:39:13.653Z,13.67
2023-02-17T02:41:42.619Z,13.87
2023-02-17T02:44:11.465Z,14.30
2023-02-17T02:46:39.907Z,14.07
2023-02-17T02:49:08.302Z,13.27
2023-02-17T02:51:40.849Z,14.47
2023-02-17T02:54:27.010Z,13.97
2023-02-17T02:57:05.436Z,14.57
2023-02-17T02:59:36.337Z,14.70
2023-02-17T03:02:07.207Z,14.13
2023-02-17T03:04:37.289Z,15.37
2023-02-17T03:07:07.701Z,15.90
2023-02-17T03:09:36.111Z,14.80
2023-02-17T03:12:04.860Z,15.23
2023-02-17T03:14:33.221Z,14.90
2023-02-17T03:17:01.661Z,15.80
2023-02-17T03:19:30.100Z,15.27
2023-02-17T03:21:59.791Z,14.33
2023-02-17T03:24:29.604Z,16.20
2023-02-17T03:26:58.280Z,13.50
2023-02-17T03:29:26.719Z,15.50
2023-02-17T03:31:55.458Z,15.30
2023-02-17T03:34:24.038Z,15.23
2023-02-17T03:36:52.476Z,15.00
2023-02-17T03:39:20.902Z,15.00
2023-02-17T03:41:51.841Z,15.17
2023-02-17T03:44:20.317Z,15.10
2023-02-17T03:46:48.775Z,16.20
2023-02-17T03:49:17.294Z,16.20
2023-02-17T03:51:45.759Z,16.03
2023-02-17T03:54:14.343Z,15.23
2023-02-17T03:56:42.828Z,14.87
2023-02-17T03:59:12.775Z,14.33
2023-02-17T04:01:41.428Z,14.20
2023-02-17T04:04:09.993Z,15.13
2023-02-17T04:06:38.466Z,15.90
2023-02-17T04:09:07.020Z,15.83
2023-02-17T04:11:35.405Z,16.73
2023-02-17T04:14:03.944Z,16.80
2023-02-17T04:16:39.176Z,17.63
2023-02-17T04:19:07.645Z,16.77
2023-02-17T04:21:36.319Z,15.37
2023-02-17T04:24:04.931Z,15.77
2023-02-17T04:26:33.433Z,14.87
2023-02-17T04:29:01.978Z,15.10
2023-02-17T04:31:30.547Z,15.07
2023-02-17T04:34:00.400Z,14.50
2023-02-17T04:36:29.172Z,13.43
2023-02-17T04:38:57.748Z,13.57
2023-02-17T04:41:26.251Z,14.67
2023-02-17T04:43:54.722Z,15.43
2023-02-17T04:46:23.209Z,16.10
2023-02-17T04:48:51.656Z,16.40
2023-02-17T04:51:21.443Z,16.37
2023-02-17T04:53:49.878Z,17.27
2023-02-17T04:56:18.428Z,16.63
2023-02-17T04:58:46.909Z,16.73
2023-02-17T05:01:15.323Z,18.30
2023-02-17T05:03:43.953Z,16.53
2023-02-17T05:06:12.392Z,16.57
2023-02-17T05:08:42.303Z,17.97
2023-02-17T05:11:10.838Z,17.37
2023-02-17T05:13:39.418Z,16.73
2023-02-17T05:16:08.403Z,16.33
2023-02-17T05:18:37.023Z,17.97
2023-02-17T05:21:05.718Z,15.87
2023-02-17T05:23:34.112Z,17.47
2023-02-17T05:26:04.385Z,17.30
2023-02-17T05:28:32.907Z,16.30
2023-02-17T05:31:02.403Z,17.87
2023-02-17T05:33:30.859Z,16.20
2023-02-17T05:36:03.626Z,17.50
2023-02-17T05:38:32.043Z,16.07
2023-02-17T05:41:00.436Z,16.53
2023-02-17T05:43:30.207Z,15.70
2023-02-17T05:45:58.802Z,14.77
2023-02-17T05:48:27.297Z,14.93
2023-02-17T05:50:55.873Z,13.87
2023-02-17T05:53:24.326Z,14.17
2023-02-17T05:55:52.714Z,13.07
2023-02-17T05:58:21.259Z,14.10
2023-02-17T06:00:51.074Z,14.63
2023-02-17T06:03:19.615Z,14.00
2023-02-17T06:05:48.076Z,13.17
2023-02-17T06:08:16.608Z,12.17
2023-02-17T06:10:45.047Z,12.93
2023-02-17T06:13:13.598Z,14.00
2023-02-17T06:15:42.541Z,13.80
2023-02-17T06:18:12.289Z,13.27
2023-02-17T06:20:40.820Z,13.90
2023-02-17T06:23:12.630Z,14.40
2023-02-17T06:25:41.166Z,13.87
2023-02-17T06:28:09.587Z,13.37
2023-02-17T06:30:38.046Z,13.47
2023-02-17T06:33:06.641Z,13.57
2023-02-17T06:35:36.629Z,14.73
2023-02-17T06:38:05.058Z,14.13
2023-02-17T06:40:33.457Z,13.30
2023-02-17T06:43:01.824Z,13.33
2023-02-17T06:45:30.359Z,13.10
2023-02-17T06:47:58.848Z,12.77
2023-02-17T06:50:27.233Z,12.10
2023-02-17T06:52:57.152Z,13.17
2023-02-17T06:55:25.627Z,12.23
2023-02-17T06:57:54.081Z,11.50
2023-02-17T07:00:23.182Z,11.27
2023-02-17T07:02:54.657Z,12.07
2023-02-17T07:05:23.259Z,9.90
2023-02-17T07:07:53.252Z,11.70
2023-02-17T07:10:23.181Z,11.17
2023-02-17T07:12:51.585Z,10.07
2023-02-17T07:15:20.136Z,10.67
2023-02-17T07:17:48.624Z,10.73
2023-02-17T07:20:17.300Z,11.40
2023-02-17T07:22:45.690Z,9.97
2023-02-17T07:25:14.317Z,9.00
2023-02-17T07:27:44.016Z,9.60
2023-02-17T07:30:12.803Z,10.13
2023-02-17T07:32:41.246Z,10.27
2023-02-17T07:35:09.957Z,9.73
2023-02-17T07:37:38.437Z,9.50
2023-02-17T07:40:07.492Z,8.60
2023-02-17T07:42:35.930Z,8.77
2023-02-17T07:45:06.940Z,8.10
2023-02-17T07:47:35.335Z,8.90
2023-02-17T07:50:03.726Z,9.33
2023-02-17T07:52:32.119Z,9.43
2023-02-17T07:55:02.118Z,7.50
2023-02-17T07:57:30.435Z,9.57
2023-02-17T07:59:59.012Z,9.17
2023-02-17T08:02:28.809Z,8.33
2023-02-17T08:04:57.408Z,8.43
2023-02-17T08:07:25.776Z,9.50
2023-02-17T08:10:11.954Z,10.30
2023-02-17T08:13:09.535Z,10.40
2023-02-17T08:15:38.208Z,10.10
2023-02-17T08:18:08.125Z,9.50
2023-02-17T08:20:36.885Z,9.90
2023-02-17T08:23:05.259Z,9.70
2023-02-17T08:25:34.359Z,9.80
2023-02-17T08:28:02.992Z,8.77
2023-02-17T08:30:31.533Z,8.87
2023-02-17T08:33:00.229Z,9.80
2023-02-17T08:35:30.189Z,9.13
2023-02-17T08:37:58.720Z,9.77
2023-02-17T08:40:27.088Z,9.43
2023-02-17T08:42:55.506Z,9.30
2023-02-17T08:45:24.007Z,9.73
2023-02-17T08:47:52.432Z,9.40
2023-02-17T08:50:21.163Z,9.00
2023-02-17T08:52:50.899Z,8.83
2023-02-17T08:55:20.445Z,9.87
2023-02-17T08:57:49.325Z,9.17
2023-02-17T09:00:18.417Z,9.27
2023-02-17T09:02:47.251Z,9.13
2023-02-17T09:05:16.032Z,9.53
2023-02-17T09:07:44.433Z,8.73
2023-02-17T09:10:14.272Z,9.20
2023-02-17T09:12:42.800Z,9.07
2023-02-17T09:15:11.456Z,8.30
2023-02-17T09:17:42.996Z,9.93
2023-02-17T09:20:24.017Z,9.10
2023-02-17T09:22:53.084Z,9.10
2023-02-17T09:25:23.010Z,9.50
2023-02-17T09:27:51.530Z,8.83
2023-02-17T09:30:20.063Z,8.27
2023-02-17T09:32:48.843Z,8.80
2023-02-17T09:35:17.945Z,7.50
2023-02-17T09:37:46.478Z,7.70
2023-02-17T09:40:18.009Z,8.27
2023-02-17T09:42:47.975Z,8.27
2023-02-17T09:45:18.802Z,8.27
2023-02-17T09:47:48.542Z,7.73
2023-02-17T09:50:17.876Z,8.73
2023-02-17T09:52:49.186Z,8.13
2023-02-17T09:55:18.376Z,9.60
2023-02-17T09:57:49.592Z,8.87
2023-02-17T10:00:18.746Z,9.17
2023-02-17T10:02:48.429Z,9.30
2023-02-17T10:05:18.184Z,8.40
2023-02-17T10:07:47.828Z,9.17
2023-02-17T10:10:16.790Z,8.10
2023-02-17T10:12:46.065Z,7.80
2023-02-17T10:15:19.086Z,8.17
2023-02-17T10:17:48.584Z,8.00
2023-02-17T10:20:17.903Z,7.43
2023-02-17T10:22:47.325Z,8.03
2023-02-17T10:25:16.643Z,8.23
2023-02-17T10:27:45.396Z,7.40
2023-02-17T10:30:33.194Z,6.90
2023-02-17T10:33:02.528Z,8.50
2023-02-17T10:35:43.417Z,7.97
2023-02-17T10:38:15.384Z,8.10
2023-02-17T10:40:45.086Z,7.27
2023-02-17T10:43:21.219Z,7.43
2023-02-17T10:45:51.345Z,8.10
2023-02-17T10:48:20.849Z,8.30
2023-02-17T10:50:49.363Z,7.87
2023-02-17T10:53:19.201Z,7.47
2023-02-17T10:55:51.110Z,8.20
2023-02-17T10:58:21.121Z,6.83
2023-02-17T11:00:52.022Z,8.23
2023-02-17T11:03:20.967Z,7.00
2023-02-17T11:05:54.260Z,8.37
2023-02-17T11:08:26.225Z,8.30
2023-02-17T11:11:00.334Z,8.43
2023-02-17T11:13:33.334Z,8.87
2023-02-17T11:16:03.198Z,8.13
2023-02-17T11:18:33.641Z,7.40
2023-02-17T11:21:03.169Z,8.47
2023-02-17T11:23:31.932Z,8.27
2023-02-17T11:26:02.079Z,7.97
2023-02-17T11:28:30.550Z,8.43
2023-02-17T11:31:02.821Z,8.83
2023-02-17T11:33:42.206Z,9.00
2023-02-17T11:36:13.791Z,8.83
2023-02-17T11:38:46.119Z,7.53
2023-02-17T11:41:14.545Z,8.33
2023-02-17T11:43:52.504Z,8.30
2023-02-17T11:46:23.550Z,8.00
2023-02-17T11:49:07.236Z,7.43
2023-02-17T11:51:38.594Z,7.90
2023-02-17T11:54:08.845Z,8.87
2023-02-17T11:56:37.601Z,7.57
2023-02-17T11:59:21.046Z,8.33
2023-02-17T12:01:57.620Z,8.00
2023-02-17T12:04:28.293Z,8.20
2023-02-17T12:07:02.059Z,7.93
2023-02-17T12:09:31.884Z,7.50
2023-02-17T12:12:01.561Z,7.23
2023-02-17T12:14:48.397Z,7.30
2023-02-17T12:17:18.507Z,6.43
2023-02-17T12:19:51.113Z,7.17
2023-02-17T12:22:20.125Z,6.53
2023-02-17T12:24:52.850Z,6.80
2023-02-17T12:27:25.113Z,6.93
2023-02-17T12:30:04.161Z,7.00
2023-02-17T12:32:36.431Z,7.40
2023-02-17T12:35:12.501Z,6.57
2023-02-17T12:37:43.655Z,6.93
2023-02-17T12:40:16.416Z,6.40
2023-02-17T12:42:45.567Z,7.53
2023-02-17T12:45:18.174Z,6.77
2023-02-17T12:47:49.634Z,7.63
2023-02-17T12:50:21.571Z,7.63
2023-02-17T12:52:50.996Z,8.30
2023-02-17T12:55:21.232Z,7.30
2023-02-17T12:57:53.389Z,6.83
2023-02-17T13:00:22.862Z,7.40
2023-02-17T13:02:51.504Z,6.50
2023-02-17T13:05:24.056Z,6.60
2023-02-17T13:07:53.132Z,6.17
2023-02-17T13:10:30.268Z,6.20
2023-02-17T13:12:59.803Z,7.23
2023-02-17T13:15:33.307Z,6.07
2023-02-17T13:18:03.240Z,5.97
2023-02-17T13:20:52.469Z,6.20
2023-02-17T13:23:36.187Z,6.10
2023-02-17T13:26:31.578Z,6.00
2023-02-17T13:29:10.708Z,6.27
2023-02-17T13:31:49.216Z,5.87
2023-02-17T13:34:27.617Z,6.00
2023-02-17T13:36:56.047Z,7.03
2023-02-17T13:39:35.860Z,5.90
2023-02-17T13:42:04.225Z,6.50
2023-02-17T13:44:33.153Z,5.40
2023-02-17T13:47:02.231Z,6.13
2023-02-17T13:49:33.069Z,6.20
2023-02-17T13:52:17.623Z,6.63
2023-02-17T13:54:54.619Z,5.93
2023-02-17T13:57:26.650Z,6.50
2023-02-17T13:59:54.989Z,6.87
2023-02-17T14:02:35.365Z,5.73
2023-02-17T14:05:06.948Z,5.13
2023-02-17T14:07:36.133Z,5.63
2023-02-17T14:10:06.236Z,6.53
2023-02-17T14:12:34.781Z,5.83
2023-02-17T14:15:03.341Z,5.57
2023-02-17T14:17:33.034Z,5.97
2023-02-17T14:20:01.988Z,6.13
2023-02-17T14:22:31.143Z,5.63
2023-02-17T14:25:00.299Z,6.13
2023-02-17T14:27:30.262Z,6.17
2023-02-17T14:29:59.245Z,4.93
2023-02-17T14:32:31.485Z,6.80
2023-02-17T14:35:21.442Z,5.77
2023-02-17T14:37:50.469Z,5.50
2023-02-17T14:40:19.706Z,5.97
2023-02-17T14:42:49.551Z,6.50
2023-02-17T14:45:18.191Z,6.30
2023-02-17T14:47:46.722Z,5.90
2023-02-17T14:50:16.525Z,6.23
2023-02-17T14:52:46.540Z,5.57
2023-02-17T14:55:16.804Z,6.23
2023-02-17T14:57:45.319Z,5.93
2023-02-17T15:00:16.163Z,6.83
2023-02-17T15:02:44.735Z,5.27
2023-02-17T15:05:13.264Z,5.97
2023-02-17T15:07:43.355Z,5.90
2023-02-17T15:10:16.707Z,5.70
2023-02-17T15:12:45.185Z,5.90
2023-02-17T15:15:17.284Z,5.87
2023-02-17T15:17:45.897Z,6.23
2023-02-17T15:20:14.680Z,5.50
2023-02-17T15:22:44.370Z,5.47
2023-02-17T15:25:16.102Z,5.87
2023-02-17T15:27:44.584Z,5.17
2023-02-17T15:30:13.406Z,5.63
2023-02-17T15:32:43.698Z,6.60
2023-02-17T15:35:15.480Z,6.33
2023-02-17T15:37:44.009Z,6.50
2023-02-17T15:40:15.340Z,5.70
2023-02-17T15:42:44.207Z,5.93
2023-02-17T15:45:15.739Z,6.10
2023-02-17T15:47:45.563Z,5.93
2023-02-17T15:50:20.443Z,5.87
2023-02-17T15:52:49.805Z,6.33
2023-02-17T15:55:18.990Z,6.87
2023-02-17T15:57:48.134Z,6.03
2023-02-17T16:00:20.632Z,5.30
2023-02-17T16:02:50.614Z,6.07
2023-02-17T16:05:19.680Z,7.10
2023-02-17T16:07:48.255Z,5.60
2023-02-17T16:10:17.103Z,5.63
2023-02-17T16:12:48.456Z,5.93
2023-02-17T16:15:17.464Z,5.80
2023-02-17T16:17:46.087Z,5.40
2023-02-17T16:20:19.986Z,5.87
2023-02-17T16:22:48.484Z,5.83
2023-02-17T16:25:17.552Z,5.77
2023-02-17T16:27:46.236Z,6.30
2023-02-17T16:30:21.078Z,6.27
2023-02-17T16:32:49.874Z,6.53
2023-02-17T16:35:19.919Z,5.40
2023-02-17T16:37:51.158Z,7.13
2023-02-17T16:40:19.804Z,5.40
2023-02-17T16:42:48.205Z,6.83
2023-02-17T16:45:17.582Z,5.70
2023-02-17T16:47:46.563Z,5.27
2023-02-17T16:50:20.452Z,5.80
2023-02-17T16:52:48.939Z,5.13
2023-02-17T16:55:18.327Z,5.93
2023-02-17T16:57:46.911Z,5.70
2023-02-17T17:00:16.699Z,5.80
2023-02-17T17:02:45.620Z,6.93
2023-02-17T17:05:14.285Z,5.37
2023-02-17T17:07:44.259Z,5.70
2023-02-17T17:10:17.016Z,4.67
2023-02-17T17:12:45.947Z,5.83
2023-02-17T17:15:14.728Z,5.90
2023-02-17T17:17:43.396Z,5.67
2023-02-17T17:20:14.780Z,5.33
2023-02-17T17:22:44.723Z,5.90
2023-02-17T17:25:13.145Z,5.33
2023-02-17T17:27:41.849Z,6.50
2023-02-17T17:30:10.975Z,4.90
2023-02-17T17:32:39.629Z,7.47
2023-02-17T17:35:08.502Z,4.97
2023-02-17T17:37:39.145Z,6.37
2023-02-17T17:40:10.004Z,6.73
2023-02-17T17:42:38.407Z,6.60
2023-02-17T17:45:07.288Z,5.60
2023-02-17T17:47:39.129Z,5.03
2023-02-17T17:50:10.699Z,5.23
2023-02-17T17:52:40.018Z,5.03
2023-02-17T17:55:10.032Z,5.63
2023-02-17T17:57:38.459Z,5.70
2023-02-17T18:00:07.778Z,5.77
2023-02-17T18:02:36.307Z,5.60
2023-02-17T18:05:04.730Z,5.67
2023-02-17T18:07:34.899Z,5.47
2023-02-17T18:10:04.965Z,5.67
2023-02-17T18:12:35.072Z,5.53
2023-02-17T18:15:06.937Z,5.63
2023-02-17T18:17:35.680Z,5.27
2023-02-17T18:20:04.050Z,5.57
2023-02-17T18:22:32.502Z,5.00
2023-02-17T18:25:00.975Z,5.77
2023-02-17T18:27:29.490Z,5.37
2023-02-17T18:29:59.333Z,5.37
2023-02-17T18:32:27.864Z,5.70
2023-02-17T18:34:58.468Z,5.30
2023-02-17T18:37:27.176Z,5.80
2023-02-17T18:39:55.726Z,5.70
2023-02-17T18:42:24.137Z,6.23
2023-02-17T18:44:53.624Z,5.57
2023-02-17T18:47:23.476Z,5.90
2023-02-17T18:49:52.017Z,5.23
2023-02-17T18:52:20.456Z,5.87
2023-02-17T18:54:48.898Z,6.50
2023-02-17T18:57:17.365Z,8.27
2023-02-17T18:59:45.836Z,8.20
2023-02-17T19:02:14.207Z,10.10
2023-02-17T19:04:44.042Z,9.77
2023-02-17T19:07:12.547Z,8.87
2023-02-17T19:09:42.227Z,9.20
2023-02-17T19:12:13.521Z,9.73
2023-02-17T19:14:42.310Z,8.83
2023-02-17T19:17:10.906Z,10.17
2023-02-17T19:19:39.450Z,10.77
2023-02-17T19:22:12.153Z,10.07
2023-02-17T19:24:41.640Z,9.20
2023-02-17T19:27:10.012Z,10.00
2023-02-17T19:29:38.648Z,9.73
2023-02-17T19:32:07.542Z,9.93
2023-02-17T19:34:37.384Z,9.43
2023-02-17T19:37:05.808Z,9.97
2023-02-17T19:39:36.060Z,9.77
2023-02-17T19:42:04.600Z,9.80
2023-02-17T19:44:33.063Z,8.30
2023-02-17T19:47:02.379Z,9.33
2023-02-17T19:49:30.722Z,9.27
2023-02-17T19:51:59.125Z,8.90
2023-02-17T19:54:27.492Z,9.13
2023-02-17T19:56:57.299Z,9.23
2023-02-17T19:59:25.804Z,9.93
2023-02-17T20:01:54.226Z,9.33
2023-02-17T20:04:22.731Z,10.70
2023-02-17T20:06:54.310Z,9.63
2023-02-17T20:09:23.197Z,10.07
2023-02-17T20:11:53.156Z,10.30
2023-02-17T20:14:23.424Z,9.93
2023-02-17T20:16:53.315Z,10.20
2023-02-17T20:19:21.937Z,10.63
2023-02-17T20:21:50.313Z,10.30
2023-02-17T20:24:19.234Z,10.10
2023-02-17T20:26:47.964Z,10.27
2023-02-17T20:29:16.599Z,10.60
2023-02-17T20:31:46.533Z,10.70
2023-02-17T20:34:22.709Z,11.07
2023-02-17T20:36:51.112Z,9.77
2023-02-17T20:39:20.438Z,10.73
2023-02-17T20:41:48.913Z,10.20
2023-02-17T20:44:18.168Z,9.23
2023-02-17T20:46:49.083Z,9.90
2023-02-17T20:49:17.588Z,10.23
2023-02-17T20:51:46.477Z,10.83
2023-02-17T20:54:14.838Z,9.27
2023-02-17T20:56:43.703Z,11.17
2023-02-17T20:59:13.318Z,10.13
2023-02-17T21:01:41.940Z,9.63
2023-02-17T21:04:14.141Z,10.27
2023-02-17T21:06:43.249Z,10.17
2023-02-17T21:09:14.711Z,12.60
2023-02-17T21:11:43.131Z,9.97
2023-02-17T21:14:11.569Z,9.33
2023-02-17T21:16:40.049Z,10.00
2023-02-17T21:19:08.548Z,9.20
2023-02-17T21:21:38.790Z,9.90
2023-02-17T21:24:07.492Z,8.87
2023-02-17T21:26:36.136Z,8.80
2023-02-17T21:29:04.601Z,9.10
2023-02-17T21:31:33.125Z,9.20
2023-02-17T21:34:01.668Z,9.53
2023-02-17T21:36:30.417Z,9.70
2023-02-17T21:39:00.320Z,8.60
2023-02-17T21:41:30.364Z,9.70
2023-02-17T21:44:16.549Z,9.63
2023-02-17T21:46:45.382Z,8.87
2023-02-17T21:49:13.909Z,8.87
2023-02-17T21:51:42.333Z,8.57
2023-02-17T21:54:12.317Z,9.27
2023-02-17T21:56:40.725Z,8.63
2023-02-17T21:59:09.430Z,8.93
2023-02-17T22:01:37.977Z,8.23
2023-02-17T22:04:06.981Z,8.30
2023-02-17T22:06:36.194Z,9.47
2023-02-17T22:09:05.243Z,8.60
2023-02-17T22:11:36.902Z,9.37
2023-02-17T22:14:06.602Z,9.60
2023-02-17T22:16:35.655Z,8.90
2023-02-17T22:19:04.212Z,8.50
2023-02-17T22:21:32.611Z,9.00
2023-02-17T22:24:01.216Z,8.27
2023-02-17T22:26:29.772Z,9.30
2023-02-17T22:28:59.578Z,10.23
2023-02-17T22:31:29.270Z,9.73
2023-02-17T22:33:58.105Z,9.37
2023-02-17T22:36:27.608Z,9.77
2023-02-17T22:38:56.345Z,10.50
2023-02-17T22:41:25.550Z,11.73
2023-02-17T22:43:54.060Z,11.10
2023-02-17T22:46:24.312Z,10.57
2023-02-17T22:48:53.735Z,11.67
2023-02-17T22:51:22.496Z,11.67
2023-02-17T22:53:51.576Z,10.70
2023-02-17T22:56:20.737Z,12.17
2023-02-17T22:58:53.793Z,11.70
2023-02-17T23:01:22.837Z,12.27
2023-02-17T23:03:54.544Z,12.63
2023-02-17T23:06:24.486Z,12.63
2023-02-17T23:08:52.932Z,13.97
2023-02-17T23:11:42.496Z,12.90
2023-02-17T23:14:10.978Z,13.93
2023-02-17T23:16:39.845Z,14.37
2023-02-17T23:19:10.215Z,13.90
2023-02-17T23:21:38.984Z,14.43
2023-02-17T23:24:07.977Z,14.50
2023-02-17T23:26:36.493Z,14.30
2023-02-17T23:29:05.084Z,14.70
2023-02-17T23:31:33.667Z,14.57
2023-02-17T23:34:03.388Z,15.33
2023-02-17T23:36:33.934Z,15.57
2023-02-17T23:39:03.503Z,16.43
2023-02-17T23:41:32.788Z,16.10
2023-02-17T23:44:02.200Z,17.20
2023-02-17T23:46:30.732Z,18.50
2023-02-17T23:49:01.504Z,17.30
2023-02-17T23:51:30.802Z,18.57
2023-02-17T23:54:04.907Z,17.50
2023-02-17T23:56:33.852Z,18.23
2023-02-17T23:59:02.555Z,18.90
